Time;durP1;ratioP1;P1;durP2;ratioP2;P2;SDS_P1;SDS_P2;PMS_P1;PMS_P2;Temp;Humidity;BMP_temperature;BMP_pressure;BME280_temperature;BME280_humidity;BME280_pressure;Samples;Min_cycle;Max_cycle;Signal;HPM_P1;HPM_P2
2023/06/06 00:00:39;;;;;;;2.08;0.90;;;;;;;;;;5034927;28;20029;-74
2023/06/06 00:03:05;;;;;;;1.55;0.80;;;;;;;;;;5035933;28;20022;-73
2023/06/06 00:05:33;;;;;;;0.88;0.50;;;;;;;;;;5042666;28;20102;-73
2023/06/06 00:07:59;;;;;;;0.68;0.68;;;;;;;;;;5036367;28;20060;-73
2023/06/06 00:10:26;;;;;;;0.93;0.80;;;;;;;;;;5049077;28;20025;-74
2023/06/06 00:12:52;;;;;;;1.48;0.80;;;;;;;;;;5041394;28;20081;-73
2023/06/06 00:15:19;;;;;;;0.80;0.60;;;;;;;;;;5047001;28;20348;-73
2023/06/06 00:17:45;;;;;;;1.63;1.00;;;;;;;;;;5044217;28;20037;-74
2023/06/06 00:20:12;;;;;;;1.10;0.68;;;;;;;;;;5049888;28;20055;-74
2023/06/06 00:22:39;;;;;;;1.77;0.95;;;;;;;;;;5052029;28;20023;-74
2023/06/06 00:25:06;;;;;;;0.70;0.70;;;;;;;;;;5036517;28;20032;-73
2023/06/06 00:27:34;;;;;;;0.82;0.70;;;;;;;;;;5042581;28;20037;-74
2023/06/06 00:30:00;;;;;;;0.70;0.70;;;;;;;;;;5038222;28;20056;-73
2023/06/06 00:32:26;;;;;;;1.30;0.80;;;;;;;;;;5040238;28;20017;-73
2023/06/06 00:34:53;;;;;;;1.52;1.00;;;;;;;;;;5031534;28;20091;-74
2023/06/06 00:37:19;;;;;;;0.95;0.80;;;;;;;;;;5048838;28;20033;-73
2023/06/06 00:39:50;;;;;;;1.10;1.00;;;;;;;;;;5045551;28;20121;-73
2023/06/06 00:42:16;;;;;;;1.42;0.80;;;;;;;;;;5037742;28;20466;-73
2023/06/06 00:44:42;;;;;;;0.70;0.63;;;;;;;;;;5033771;28;20041;-73
2023/06/06 00:47:08;;;;;;;1.60;1.05;;;;;;;;;;5040438;28;20495;-73
2023/06/06 00:49:36;;;;;;;1.10;0.80;;;;;;;;;;5044703;28;20091;-74
2023/06/06 00:52:02;;;;;;;0.70;0.70;;;;;;;;;;5037967;28;20446;-73
2023/06/06 00:54:31;;;;;;;0.77;0.70;;;;;;;;;;5046731;28;20034;-73
2023/06/06 00:56:57;;;;;;;0.88;0.70;;;;;;;;;;5041617;28;20113;-73
2023/06/06 00:59:24;;;;;;;1.17;0.98;;;;;;;;;;5032573;28;20239;-73
2023/06/06 01:01:51;;;;;;;0.60;0.60;;;;;;;;;;5037161;28;20024;-74
2023/06/06 01:04:18;;;;;;;1.00;0.90;;;;;;;;;;5033810;28;20075;-73
2023/06/06 01:06:45;;;;;;;1.40;0.85;;;;;;;;;;5039330;28;20098;-73
2023/06/06 01:09:12;;;;;;;0.70;0.70;;;;;;;;;;5034468;28;20112;-73
2023/06/06 01:11:46;;;;;;;1.05;0.80;;;;;;;;;;5044186;28;20024;-73
2023/06/06 01:14:13;;;;;;;0.70;0.70;;;;;;;;;;5041059;28;20102;-73
2023/06/06 01:16:41;;;;;;;1.42;0.88;;;;;;;;;;5044775;28;20029;-73
2023/06/06 01:19:11;;;;;;;0.50;0.50;;;;;;;;;;5037874;28;20036;-73
2023/06/06 01:21:41;;;;;;;0.80;0.70;;;;;;;;;;5049688;28;20037;-73
2023/06/06 01:24:07;;;;;;;0.90;0.75;;;;;;;;;;5039197;28;20026;-74
2023/06/06 01:26:33;;;;;;;1.40;0.80;;;;;;;;;;5039718;28;20039;-74
2023/06/06 01:28:59;;;;;;;1.13;0.80;;;;;;;;;;5037442;28;20237;-74
2023/06/06 01:31:28;;;;;;;0.57;0.50;;;;;;;;;;5042895;28;20098;-74
2023/06/06 01:34:00;;;;;;;0.65;0.65;;;;;;;;;;5040459;28;20365;-73
2023/06/06 01:36:40;;;;;;;0.98;0.90;;;;;;;;;;5039514;28;20033;-74
2023/06/06 01:39:12;;;;;;;0.70;0.70;;;;;;;;;;5039702;28;20489;-74
2023/06/06 01:41:38;;;;;;;0.85;0.80;;;;;;;;;;5046441;28;20032;-74
2023/06/06 01:44:07;;;;;;;0.88;0.80;;;;;;;;;;5041390;28;20549;-74
2023/06/06 01:46:34;;;;;;;0.63;0.50;;;;;;;;;;5040184;28;20450;-74
2023/06/06 01:49:00;;;;;;;0.85;0.75;;;;;;;;;;5047408;28;20238;-74
2023/06/06 01:51:29;;;;;;;1.10;1.00;;;;;;;;;;5031572;28;20392;-74
2023/06/06 01:53:58;;;;;;;0.60;0.60;;;;;;;;;;5044230;28;20019;-74
2023/06/06 01:56:26;;;;;;;1.63;0.80;;;;;;;;;;5041979;28;20044;-74
2023/06/06 01:58:52;;;;;;;0.45;0.45;;;;;;;;;;5040776;28;20017;-74
2023/06/06 02:01:18;;;;;;;0.90;0.80;;;;;;;;;;5038981;28;20021;-75
2023/06/06 02:03:44;;;;;;;1.20;0.90;;;;;;;;;;5036473;28;20048;-75
2023/06/06 02:06:10;;;;;;;0.55;0.55;;;;;;;;;;5033194;28;20507;-75
2023/06/06 02:08:36;;;;;;;5.05;0.90;;;;;;;;;;5040167;28;20680;-74
2023/06/06 02:11:12;;;;;;;0.82;0.68;;;;;;;;;;5041575;28;20041;-74
2023/06/06 02:13:38;;;;;;;1.48;1.00;;;;;;;;;;5036669;28;20017;-74
2023/06/06 02:16:04;;;;;;;1.38;0.68;;;;;;;;;;5038886;28;20118;-74
2023/06/06 02:18:30;;;;;;;0.65;0.65;;;;;;;;;;5045079;28;20021;-74
2023/06/06 02:20:56;;;;;;;1.08;0.80;;;;;;;;;;5055884;28;20408;-74
2023/06/06 02:23:22;;;;;;;0.82;0.70;;;;;;;;;;5041097;28;20671;-74
2023/06/06 02:25:48;;;;;;;0.90;0.90;;;;;;;;;;5038338;28;20033;-74
2023/06/06 02:28:15;;;;;;;2.17;0.80;;;;;;;;;;5033825;28;20033;-74
2023/06/06 02:30:41;;;;;;;0.90;0.80;;;;;;;;;;5034002;28;20033;-74
2023/06/06 02:33:07;;;;;;;0.88;0.77;;;;;;;;;;5040419;28;20071;-74
2023/06/06 02:35:33;;;;;;;0.73;0.73;;;;;;;;;;5033272;28;20021;-74
2023/06/06 02:38:00;;;;;;;0.80;0.80;;;;;;;;;;5033169;28;20213;-74
2023/06/06 02:40:26;;;;;;;0.63;0.63;;;;;;;;;;5038442;28;20033;-74
2023/06/06 02:42:51;;;;;;;1.05;0.80;;;;;;;;;;5035919;28;20498;-74
2023/06/06 02:45:18;;;;;;;1.00;0.80;;;;;;;;;;5043954;28;20365;-74
2023/06/06 02:47:44;;;;;;;0.68;0.68;;;;;;;;;;5042137;28;20021;-75
2023/06/06 02:50:10;;;;;;;0.70;0.70;;;;;;;;;;5037767;28;20067;-75
2023/06/06 02:52:38;;;;;;;1.17;0.68;;;;;;;;;;5036136;28;20032;-75
2023/06/06 02:55:04;;;;;;;1.15;0.60;;;;;;;;;;5037475;28;20172;-74
2023/06/06 02:57:30;;;;;;;0.73;0.70;;;;;;;;;;5039793;28;20049;-75
2023/06/06 02:59:58;;;;;;;0.52;0.52;;;;;;;;;;5034177;28;20041;-75
2023/06/06 03:02:24;;;;;;;0.75;0.75;;;;;;;;;;5037253;28;20029;-75
2023/06/06 03:04:50;;;;;;;2.33;1.10;;;;;;;;;;5037027;28;20538;-75
2023/06/06 03:07:16;;;;;;;0.63;0.63;;;;;;;;;;5040103;28;20053;-74
2023/06/06 03:09:42;;;;;;;1.85;1.20;;;;;;;;;;5039862;28;20047;-74
2023/06/06 03:12:08;;;;;;;0.80;0.65;;;;;;;;;;5041537;28;20076;-74
2023/06/06 03:14:34;;;;;;;1.42;0.60;;;;;;;;;;5029564;28;20037;-75
2023/06/06 03:17:00;;;;;;;0.63;0.63;;;;;;;;;;5036961;28;20084;-75
2023/06/06 03:19:26;;;;;;;0.77;0.70;;;;;;;;;;5034775;28;20086;-75
2023/06/06 03:21:52;;;;;;;1.00;0.80;;;;;;;;;;5038295;28;20052;-75
2023/06/06 03:24:19;;;;;;;1.50;0.70;;;;;;;;;;5032239;28;20155;-75
2023/06/06 03:26:46;;;;;;;0.68;0.68;;;;;;;;;;5042243;28;20056;-75
2023/06/06 03:29:12;;;;;;;1.42;0.70;;;;;;;;;;5036243;28;20394;-75
2023/06/06 03:31:38;;;;;;;1.30;0.90;;;;;;;;;;5044131;28;20029;-74
2023/06/06 03:34:04;;;;;;;0.60;0.60;;;;;;;;;;5041243;28;20033;-74
2023/06/06 03:36:33;;;;;;;0.65;0.63;;;;;;;;;;5033361;28;20043;-74
2023/06/06 03:39:00;;;;;;;0.73;0.70;;;;;;;;;;5040937;28;20029;-74
2023/06/06 03:41:26;;;;;;;0.85;0.75;;;;;;;;;;5038467;28;20029;-74
2023/06/06 03:43:52;;;;;;;0.73;0.70;;;;;;;;;;5048127;28;20016;-75
2023/06/06 03:46:18;;;;;;;0.52;0.52;;;;;;;;;;5033547;28;20032;-74
2023/06/06 03:48:44;;;;;;;1.15;0.85;;;;;;;;;;5033735;28;20037;-74
2023/06/06 03:51:10;;;;;;;0.77;0.63;;;;;;;;;;5040219;28;20025;-75
2023/06/06 03:53:36;;;;;;;0.65;0.55;;;;;;;;;;5043238;28;20024;-75
2023/06/06 03:56:04;;;;;;;0.80;0.80;;;;;;;;;;5032381;28;20033;-74
2023/06/06 03:58:30;;;;;;;1.33;0.70;;;;;;;;;;5046279;28;20403;-74
2023/06/06 04:00:58;;;;;;;0.95;0.68;;;;;;;;;;5042753;28;20042;-74
2023/06/06 04:03:25;;;;;;;0.98;0.75;;;;;;;;;;5039042;28;20079;-74
2023/06/06 04:05:51;;;;;;;0.70;0.70;;;;;;;;;;5036451;28;20044;-75
2023/06/06 04:08:17;;;;;;;1.25;0.70;;;;;;;;;;5037956;28;20477;-74
2023/06/06 04:10:44;;;;;;;0.82;0.70;;;;;;;;;;5035157;28;20136;-74
2023/06/06 04:13:10;;;;;;;1.15;0.82;;;;;;;;;;5028379;28;20107;-75
2023/06/06 04:15:36;;;;;;;1.15;0.60;;;;;;;;;;5035948;28;20526;-75
2023/06/06 04:18:02;;;;;;;1.10;0.60;;;;;;;;;;5024366;28;20025;-74
2023/06/06 04:20:28;;;;;;;0.60;0.60;;;;;;;;;;5040092;28;20555;-74
2023/06/06 04:22:54;;;;;;;0.52;0.52;;;;;;;;;;5044238;28;20587;-74
2023/06/06 04:25:20;;;;;;;0.68;0.68;;;;;;;;;;5034760;28;20033;-75
2023/06/06 04:27:48;;;;;;;0.65;0.60;;;;;;;;;;5041487;28;20052;-75
2023/06/06 04:30:14;;;;;;;4.20;0.60;;;;;;;;;;5049532;28;20017;-74
2023/06/06 04:32:40;;;;;;;0.80;0.70;;;;;;;;;;5033795;28;20071;-76
2023/06/06 04:35:07;;;;;;;0.85;0.60;;;;;;;;;;5039846;28;20110;-75
2023/06/06 04:37:33;;;;;;;1.48;0.98;;;;;;;;;;5038050;28;20044;-75
2023/06/06 04:40:00;;;;;;;0.60;0.60;;;;;;;;;;5039098;28;20021;-75
2023/06/06 04:42:32;;;;;;;0.82;0.80;;;;;;;;;;5036524;28;20067;-75
2023/06/06 04:44:59;;;;;;;0.75;0.52;;;;;;;;;;5044638;28;20222;-74
2023/06/06 04:47:28;;;;;;;0.60;0.60;;;;;;;;;;5037769;28;20051;-75
2023/06/06 04:49:54;;;;;;;0.75;0.75;;;;;;;;;;5044960;28;20649;-75
2023/06/06 04:52:20;;;;;;;0.70;0.60;;;;;;;;;;5033774;28;20542;-75
2023/06/06 04:54:47;;;;;;;0.70;0.65;;;;;;;;;;5048385;28;20028;-74
2023/06/06 04:57:15;;;;;;;0.60;0.55;;;;;;;;;;5033019;28;20025;-75
2023/06/06 04:59:41;;;;;;;1.38;0.95;;;;;;;;;;5045637;28;20336;-74
2023/06/06 05:02:07;;;;;;;0.30;0.30;;;;;;;;;;5037942;28;20029;-74
2023/06/06 05:04:33;;;;;;;1.17;0.75;;;;;;;;;;5035984;28;20492;-75
2023/06/06 05:07:00;;;;;;;1.30;0.70;;;;;;;;;;5040130;28;20122;-74
2023/06/06 05:09:26;;;;;;;1.23;0.73;;;;;;;;;;5035913;28;20033;-75
2023/06/06 05:11:54;;;;;;;0.70;0.70;;;;;;;;;;5044442;28;20043;-77
2023/06/06 05:14:23;;;;;;;0.47;0.47;;;;;;;;;;5040087;28;20017;-77
2023/06/06 05:16:53;;;;;;;0.80;0.80;;;;;;;;;;5049694;28;20083;-72
2023/06/06 05:19:19;;;;;;;0.85;0.70;;;;;;;;;;5034924;28;20060;-74
2023/06/06 05:21:45;;;;;;;1.10;0.68;;;;;;;;;;5046429;28;20265;-75
2023/06/06 05:24:11;;;;;;;1.88;0.57;;;;;;;;;;5036585;28;20041;-73
2023/06/06 05:26:37;;;;;;;1.02;0.80;;;;;;;;;;5040311;28;20098;-73
2023/06/06 05:29:03;;;;;;;0.63;0.63;;;;;;;;;;5044119;28;20037;-72
2023/06/06 05:31:29;;;;;;;0.82;0.70;;;;;;;;;;5048552;28;20029;-74
2023/06/06 05:33:58;;;;;;;0.63;0.63;;;;;;;;;;5034359;28;20032;-74
2023/06/06 05:36:24;;;;;;;2.05;0.70;;;;;;;;;;5044669;28;20036;-75
2023/06/06 05:38:51;;;;;;;0.75;0.60;;;;;;;;;;5043945;28;20025;-75
2023/06/06 05:41:18;;;;;;;0.90;0.70;;;;;;;;;;5033347;28;20515;-74
2023/06/06 05:43:51;;;;;;;1.17;0.63;;;;;;;;;;5040390;28;20064;-74
2023/06/06 05:46:17;;;;;;;0.88;0.75;;;;;;;;;;5032970;28;20030;-77
2023/06/06 05:48:43;;;;;;;1.13;0.68;;;;;;;;;;5039104;28;20029;-78
2023/06/06 05:51:10;;;;;;;1.42;0.65;;;;;;;;;;5034437;28;20034;-78
2023/06/06 05:53:44;;;;;;;2.28;1.30;;;;;;;;;;5035747;28;20029;-78
2023/06/06 05:56:10;;;;;;;1.30;0.70;;;;;;;;;;5042784;28;20153;-78
2023/06/06 05:58:49;;;;;;;0.63;0.60;;;;;;;;;;5042519;28;20029;-77
2023/06/06 06:01:17;;;;;;;1.58;0.80;;;;;;;;;;5033704;28;20068;-78
2023/06/06 06:03:49;;;;;;;2.17;0.90;;;;;;;;;;5029542;28;20132;-76
2023/06/06 06:06:16;;;;;;;0.75;0.60;;;;;;;;;;5036991;28;20052;-78
2023/06/06 06:08:44;;;;;;;1.20;0.65;;;;;;;;;;5042210;28;20510;-75
2023/06/06 06:11:10;;;;;;;1.60;0.85;;;;;;;;;;5044697;28;20028;-77
2023/06/06 06:13:36;;;;;;;2.05;0.80;;;;;;;;;;5047872;28;20075;-80
2023/06/06 06:16:11;;;;;;;3.13;1.00;;;;;;;;;;5042076;28;20025;-82
2023/06/06 06:18:37;;;;;;;0.75;0.70;;;;;;;;;;5040057;28;20035;-82
2023/06/06 06:21:03;;;;;;;0.60;0.60;;;;;;;;;;5037476;28;20033;-82
2023/06/06 06:23:29;;;;;;;4.13;1.00;;;;;;;;;;5034872;28;20448;-81
2023/06/06 06:25:55;;;;;;;1.63;1.05;;;;;;;;;;5041168;28;20025;-85
2023/06/06 06:28:22;;;;;;;0.75;0.73;;;;;;;;;;5039088;28;20030;-84
2023/06/06 06:30:48;;;;;;;1.25;0.65;;;;;;;;;;5043811;28;20028;-84
2023/06/06 06:33:15;;;;;;;1.80;0.95;;;;;;;;;;5030394;28;20629;-85
2023/06/06 06:35:41;;;;;;;2.33;1.05;;;;;;;;;;5059760;28;20448;-84
2023/06/06 06:38:07;;;;;;;2.75;1.13;;;;;;;;;;5038542;28;20116;-84
2023/06/06 06:40:33;;;;;;;0.70;0.70;;;;;;;;;;5041152;28;20052;-79
2023/06/06 06:42:59;;;;;;;1.52;0.88;;;;;;;;;;5032805;28;20161;-85
2023/06/06 06:45:26;;;;;;;1.40;1.10;;;;;;;;;;5036528;28;20033;-79
2023/06/06 06:47:52;;;;;;;2.22;1.20;;;;;;;;;;5034378;28;20435;-83
2023/06/06 06:50:18;;;;;;;0.82;0.73;;;;;;;;;;5041399;28;20021;-82
2023/06/06 06:53:03;;;;;;;2.50;1.20;;;;;;;;;;5030985;28;20037;-87
2023/06/06 06:55:29;;;;;;;1.20;1.00;;;;;;;;;;5043305;28;20021;-82
2023/06/06 06:57:56;;;;;;;3.20;0.65;;;;;;;;;;5044565;28;20372;-78
2023/06/06 07:00:23;;;;;;;0.90;0.90;;;;;;;;;;5028872;28;20029;-76
2023/06/06 07:02:50;;;;;;;1.92;1.13;;;;;;;;;;5028355;28;20060;-84
2023/06/06 07:05:16;;;;;;;1.67;1.00;;;;;;;;;;5041429;28;20029;-86
2023/06/06 07:07:43;;;;;;;1.10;0.88;;;;;;;;;;5045977;28;20108;-84
2023/06/06 07:10:09;;;;;;;3.15;1.10;;;;;;;;;;5033967;28;20607;-84
2023/06/06 07:12:38;;;;;;;1.15;0.93;;;;;;;;;;5032714;28;20033;-86
2023/06/06 07:15:05;;;;;;;3.75;1.23;;;;;;;;;;5046730;28;20029;-86
2023/06/06 07:17:31;;;;;;;1.63;0.95;;;;;;;;;;5043469;28;20025;-86
2023/06/06 07:19:57;;;;;;;1.60;0.90;;;;;;;;;;5056657;28;20467;-85
2023/06/06 07:22:23;;;;;;;1.50;0.93;;;;;;;;;;5069954;28;20093;-86
2023/06/06 07:24:51;;;;;;;1.23;1.13;;;;;;;;;;5063244;28;20033;-86
2023/06/06 07:27:18;;;;;;;1.10;1.00;;;;;;;;;;5044078;28;20021;-86
2023/06/06 07:29:44;;;;;;;1.20;1.10;;;;;;;;;;5049288;28;20021;-86
2023/06/06 07:32:10;;;;;;;1.50;0.82;;;;;;;;;;5048876;28;20029;-84
2023/06/06 07:34:36;;;;;;;1.27;0.98;;;;;;;;;;5049304;28;20391;-85
2023/06/06 07:37:03;;;;;;;1.50;1.05;;;;;;;;;;5047424;28;20028;-84
2023/06/06 07:39:29;;;;;;;1.08;0.93;;;;;;;;;;5048518;28;20037;-83
2023/06/06 07:41:55;;;;;;;2.15;1.00;;;;;;;;;;5044328;28;20025;-84
2023/06/06 07:44:21;;;;;;;2.53;1.00;;;;;;;;;;5068894;28;20032;-84
2023/06/06 07:46:47;;;;;;;1.33;1.10;;;;;;;;;;5055896;28;20108;-84
2023/06/06 07:49:13;;;;;;;1.30;0.93;;;;;;;;;;5044218;28;20120;-85
2023/06/06 07:51:39;;;;;;;1.85;1.00;;;;;;;;;;5048977;28;20024;-84
2023/06/06 07:54:05;;;;;;;1.17;1.08;;;;;;;;;;5060764;28;20028;-85
2023/06/06 07:56:36;;;;;;;3.70;1.15;;;;;;;;;;5049899;28;20025;-84
2023/06/06 07:59:03;;;;;;;1.23;0.95;;;;;;;;;;5047524;28;20021;-85
2023/06/06 08:01:29;;;;;;;1.83;1.00;;;;;;;;;;5049599;28;20037;-86
2023/06/06 08:03:55;;;;;;;1.42;1.27;;;;;;;;;;5062018;28;20026;-85
2023/06/06 08:06:24;;;;;;;2.25;1.10;;;;;;;;;;5049581;28;20064;-86
2023/06/06 08:08:52;;;;;;;1.40;1.10;;;;;;;;;;5046128;28;20025;-85
2023/06/06 08:11:18;;;;;;;1.67;1.23;;;;;;;;;;5048168;28;20033;-87
2023/06/06 08:13:44;;;;;;;2.53;1.02;;;;;;;;;;5063289;28;20024;-86
2023/06/06 08:16:10;;;;;;;2.63;1.45;;;;;;;;;;5063344;28;20025;-86
2023/06/06 08:18:39;;;;;;;1.20;1.10;;;;;;;;;;5042356;28;20510;-85
2023/06/06 08:21:05;;;;;;;1.85;1.25;;;;;;;;;;5046933;28;20025;-85
2023/06/06 08:23:31;;;;;;;2.55;1.15;;;;;;;;;;5035458;28;20029;-74
2023/06/06 08:25:57;;;;;;;1.52;1.15;;;;;;;;;;5043900;28;20037;-83
2023/06/06 08:28:23;;;;;;;1.83;1.40;;;;;;;;;;5051367;28;20158;-84
2023/06/06 08:30:51;;;;;;;1.90;1.50;;;;;;;;;;5050774;28;20060;-84
2023/06/06 08:33:17;;;;;;;3.90;1.23;;;;;;;;;;5043315;28;20017;-83
2023/06/06 08:35:43;;;;;;;1.55;1.13;;;;;;;;;;5045440;28;20029;-84
2023/06/06 08:38:09;;;;;;;1.90;1.33;;;;;;;;;;5043161;28;20040;-84
2023/06/06 08:40:35;;;;;;;1.23;1.10;;;;;;;;;;5050936;28;20032;-84
2023/06/06 08:43:01;;;;;;;2.05;1.40;;;;;;;;;;5049053;28;20044;-84
2023/06/06 08:45:27;;;;;;;2.10;1.17;;;;;;;;;;5050773;28;20040;-83
2023/06/06 08:47:55;;;;;;;1.77;1.10;;;;;;;;;;5035054;28;20041;-83
2023/06/06 08:50:26;;;;;;;2.10;1.40;;;;;;;;;;5047325;28;20033;-83
2023/06/06 08:52:52;;;;;;;1.17;1.08;;;;;;;;;;5044118;28;20021;-83
2023/06/06 08:55:19;;;;;;;1.52;1.20;;;;;;;;;;5047730;28;20024;-84
2023/06/06 08:57:49;;;;;;;1.95;1.17;;;;;;;;;;5045012;28;20424;-83
2023/06/06 09:00:21;;;;;;;1.80;1.20;;;;;;;;;;5047079;28;20033;-83
2023/06/06 09:02:52;;;;;;;2.05;1.60;;;;;;;;;;5030740;28;20108;-82
2023/06/06 09:05:19;;;;;;;1.70;1.58;;;;;;;;;;5045400;28;20053;-83
2023/06/06 09:07:47;;;;;;;2.22;1.23;;;;;;;;;;5044691;28;20646;-83
2023/06/06 09:10:13;;;;;;;2.67;2.28;;;;;;;;;;5044293;28;20052;-83
2023/06/06 09:12:43;;;;;;;2.08;1.40;;;;;;;;;;5037397;28;20044;-83
2023/06/06 09:15:10;;;;;;;2.53;1.25;;;;;;;;;;5049181;28;20117;-83
2023/06/06 09:17:36;;;;;;;2.38;1.38;;;;;;;;;;5050434;28;20386;-83
2023/06/06 09:20:14;;;;;;;2.90;1.25;;;;;;;;;;5043178;28;20468;-83
2023/06/06 09:22:41;;;;;;;1.77;1.10;;;;;;;;;;5040320;28;20028;-84
2023/06/06 09:25:16;;;;;;;2.42;1.60;;;;;;;;;;5039098;28;20116;-84
2023/06/06 09:27:42;;;;;;;2.35;1.60;;;;;;;;;;5047695;28;20381;-84
2023/06/06 09:30:21;;;;;;;3.10;1.45;;;;;;;;;;5045934;28;20029;-84
2023/06/06 09:32:51;;;;;;;1.70;1.42;;;;;;;;;;5043926;28;20372;-84
2023/06/06 09:35:17;;;;;;;1.48;1.13;;;;;;;;;;5042337;28;20167;-84
2023/06/06 09:37:43;;;;;;;1.33;1.23;;;;;;;;;;5068866;28;20021;-83
2023/06/06 09:40:19;;;;;;;1.83;1.25;;;;;;;;;;5069793;28;20506;-83
2023/06/06 09:42:46;;;;;;;1.77;1.00;;;;;;;;;;5044917;28;20030;-83
2023/06/06 09:45:15;;;;;;;1.83;1.40;;;;;;;;;;5048083;28;20409;-83
2023/06/06 09:47:45;;;;;;;2.30;1.52;;;;;;;;;;5049959;28;20029;-84
2023/06/06 09:50:11;;;;;;;1.38;1.10;;;;;;;;;;5036474;28;20106;-84
2023/06/06 09:52:38;;;;;;;1.23;1.10;;;;;;;;;;5042177;28;20483;-84
2023/06/06 09:55:12;;;;;;;2.08;1.30;;;;;;;;;;5037459;28;20029;-83
2023/06/06 09:57:39;;;;;;;1.95;1.35;;;;;;;;;;5042358;28;20025;-84
2023/06/06 10:00:10;;;;;;;1.70;1.20;;;;;;;;;;5045302;28;20079;-84
2023/06/06 10:02:42;;;;;;;1.95;1.60;;;;;;;;;;5042223;28;20017;-84
2023/06/06 10:05:11;;;;;;;1.10;1.00;;;;;;;;;;5047118;28;20095;-85
2023/06/06 10:07:38;;;;;;;1.90;1.33;;;;;;;;;;5043804;28;20025;-84
2023/06/06 10:10:05;;;;;;;1.10;1.00;;;;;;;;;;5049487;28;20029;-84
2023/06/06 10:12:31;;;;;;;2.55;1.50;;;;;;;;;;5042166;28;20033;-83
2023/06/06 10:14:57;;;;;;;1.30;1.20;;;;;;;;;;5035244;28;20028;-84
2023/06/06 10:17:24;;;;;;;1.80;1.42;;;;;;;;;;5049235;28;20801;-84
2023/06/06 10:19:52;;;;;;;1.50;1.40;;;;;;;;;;5048920;28;20091;-83
2023/06/06 10:22:18;;;;;;;1.33;1.23;;;;;;;;;;5047154;28;20024;-83
2023/06/06 10:24:44;;;;;;;2.28;1.50;;;;;;;;;;5035031;28;20031;-84
2023/06/06 10:27:18;;;;;;;2.40;1.30;;;;;;;;;;5043936;28;20108;-83
2023/06/06 10:30:13;;;;;;;1.42;1.20;;;;;;;;;;5047690;28;20025;-83
2023/06/06 10:33:01;;;;;;;1.58;1.13;;;;;;;;;;5026652;28;20080;-83
2023/06/06 10:35:27;;;;;;;1.75;1.27;;;;;;;;;;5033994;28;20017;-84
2023/06/06 10:38:07;;;;;;;1.73;1.15;;;;;;;;;;5037796;28;20036;-84
2023/06/06 10:40:42;;;;;;;1.73;1.30;;;;;;;;;;5048605;28;20047;-83
2023/06/06 10:43:09;;;;;;;2.22;1.50;;;;;;;;;;5036593;28;20332;-84
2023/06/06 10:45:41;;;;;;;2.05;1.40;;;;;;;;;;5039630;28;20488;-84
2023/06/06 10:48:07;;;;;;;2.20;1.48;;;;;;;;;;5041493;28;20492;-84
2023/06/06 10:50:37;;;;;;;2.40;1.20;;;;;;;;;;5048212;28;20028;-84
2023/06/06 10:53:06;;;;;;;1.52;1.15;;;;;;;;;;5043687;28;20526;-84
2023/06/06 10:55:35;;;;;;;1.10;1.00;;;;;;;;;;5043330;28;20535;-83
2023/06/06 10:58:06;;;;;;;2.42;1.23;;;;;;;;;;5031383;28;20037;-83
2023/06/06 11:00:33;;;;;;;1.67;1.40;;;;;;;;;;5035166;28;20071;-83
2023/06/06 11:03:05;;;;;;;2.45;1.58;;;;;;;;;;5032051;28;20045;-82
2023/06/06 11:05:31;;;;;;;1.70;1.60;;;;;;;;;;5045892;28;20045;-83
2023/06/06 11:07:58;;;;;;;2.00;1.40;;;;;;;;;;5038109;28;20465;-84
2023/06/06 11:10:24;;;;;;;2.58;1.70;;;;;;;;;;5043762;28;20048;-83
2023/06/06 11:12:50;;;;;;;2.13;1.77;;;;;;;;;;5034080;28;20022;-83
2023/06/06 11:15:27;;;;;;;2.38;1.85;;;;;;;;;;5068831;28;20051;-83
2023/06/06 11:17:59;;;;;;;2.50;1.80;;;;;;;;;;5068177;28;20021;-83
2023/06/06 11:20:27;;;;;;;1.85;1.60;;;;;;;;;;5068595;28;20029;-83
2023/06/06 11:23:01;;;;;;;2.85;1.70;;;;;;;;;;5042364;28;20098;-83
2023/06/06 11:25:28;;;;;;;3.33;1.75;;;;;;;;;;5038640;28;20037;-83
2023/06/06 11:27:55;;;;;;;1.83;1.42;;;;;;;;;;5048233;28;20033;-83
2023/06/06 11:30:23;;;;;;;2.08;1.48;;;;;;;;;;5048651;28;20411;-84
2023/06/06 11:32:49;;;;;;;1.88;1.48;;;;;;;;;;5037653;28;20033;-83
2023/06/06 11:35:17;;;;;;;1.52;1.38;;;;;;;;;;5034736;28;20052;-83
2023/06/06 11:37:43;;;;;;;4.20;1.92;;;;;;;;;;5066713;28;20021;-83
2023/06/06 11:40:09;;;;;;;5.13;1.80;;;;;;;;;;5049069;28;20061;-83
2023/06/06 11:42:35;;;;;;;1.80;1.50;;;;;;;;;;5042007;28;20476;-83
2023/06/06 11:45:02;;;;;;;3.65;1.80;;;;;;;;;;5038688;28;20033;-84
2023/06/06 11:47:31;;;;;;;1.88;1.50;;;;;;;;;;5047008;28;20678;-83
2023/06/06 11:49:57;;;;;;;1.80;1.40;;;;;;;;;;5041964;28;20026;-83
2023/06/06 11:52:23;;;;;;;2.05;1.50;;;;;;;;;;5043641;28;20028;-84
2023/06/06 11:54:54;;;;;;;2.33;1.80;;;;;;;;;;5035908;28;20489;-83
2023/06/06 11:57:20;;;;;;;2.22;1.65;;;;;;;;;;5038055;28;20017;-84
2023/06/06 11:59:59;;;;;;;1.92;1.15;;;;;;;;;;5058452;28;20033;-83
2023/06/06 12:02:24;;;;;;;1.80;1.50;;;;;;;;;;5051930;28;20030;-84
2023/06/06 12:04:50;;;;;;;2.03;1.50;;;;;;;;;;5033176;28;20035;-83
2023/06/06 12:07:17;;;;;;;1.58;1.40;;;;;;;;;;5033472;28;20049;-80
2023/06/06 12:09:43;;;;;;;1.90;1.52;;;;;;;;;;5041342;28;20040;-81
2023/06/06 12:12:10;;;;;;;1.98;1.50;;;;;;;;;;5035943;28;20026;-85
2023/06/06 12:14:36;;;;;;;2.13;1.52;;;;;;;;;;5039451;28;20029;-86
2023/06/06 12:17:03;;;;;;;2.47;1.50;;;;;;;;;;5035168;28;20144;-86
2023/06/06 12:19:29;;;;;;;4.25;1.80;;;;;;;;;;5043279;28;20423;-86
2023/06/06 12:21:55;;;;;;;2.50;1.50;;;;;;;;;;5041170;28;20238;-85
2023/06/06 12:24:22;;;;;;;2.53;1.45;;;;;;;;;;5050626;28;20149;-85
2023/06/06 12:26:53;;;;;;;2.00;1.33;;;;;;;;;;5041522;28;20036;-85
2023/06/06 12:29:39;;;;;;;1.88;1.40;;;;;;;;;;5049244;28;20480;-85
2023/06/06 12:32:19;;;;;;;1.85;1.35;;;;;;;;;;5042665;28;20045;-85
2023/06/06 12:34:49;;;;;;;2.15;1.20;;;;;;;;;;5050759;28;20021;-85
2023/06/06 12:37:15;;;;;;;2.90;1.50;;;;;;;;;;5037020;28;20070;-85
2023/06/06 12:39:42;;;;;;;1.55;1.33;;;;;;;;;;5040462;28;20032;-85
2023/06/06 12:42:12;;;;;;;1.98;1.48;;;;;;;;;;5043881;28;20068;-85
2023/06/06 12:44:38;;;;;;;1.67;1.33;;;;;;;;;;5042655;28;20028;-85
2023/06/06 12:47:04;;;;;;;2.08;1.60;;;;;;;;;;5037853;28;20515;-85
2023/06/06 12:49:30;;;;;;;2.80;1.33;;;;;;;;;;5045756;28;21974;-85
2023/06/06 12:51:56;;;;;;;1.75;1.40;;;;;;;;;;5038195;28;20480;-85
2023/06/06 12:54:22;;;;;;;2.22;1.50;;;;;;;;;;5038566;28;20072;-85
2023/06/06 12:56:49;;;;;;;1.52;1.38;;;;;;;;;;5037311;28;20255;-85
2023/06/06 12:59:15;;;;;;;2.17;1.48;;;;;;;;;;5039084;28;20115;-86
2023/06/06 13:01:41;;;;;;;1.83;1.30;;;;;;;;;;5043116;28;20037;-86
2023/06/06 13:04:07;;;;;;;1.52;1.27;;;;;;;;;;5050086;28;20024;-85
2023/06/06 13:06:33;;;;;;;3.40;1.65;;;;;;;;;;5039501;28;20041;-87
2023/06/06 13:08:59;;;;;;;1.40;1.10;;;;;;;;;;5037117;28;20025;-86
2023/06/06 13:11:25;;;;;;;3.08;1.55;;;;;;;;;;5035068;28;20033;-86
2023/06/06 13:13:51;;;;;;;1.52;1.33;;;;;;;;;;5048662;28;20120;-85
2023/06/06 13:16:17;;;;;;;3.10;1.40;;;;;;;;;;5044141;28;20408;-86
2023/06/06 13:18:43;;;;;;;2.63;1.40;;;;;;;;;;5047319;28;20488;-83
2023/06/06 13:21:09;;;;;;;1.40;1.30;;;;;;;;;;5046683;28;20021;-82
2023/06/06 13:23:35;;;;;;;3.35;1.38;;;;;;;;;;5030476;28;20108;-86
2023/06/06 13:26:01;;;;;;;3.70;1.67;;;;;;;;;;5039815;28;20577;-85
2023/06/06 13:28:27;;;;;;;1.33;1.20;;;;;;;;;;5030853;28;20029;-85
2023/06/06 13:30:53;;;;;;;3.05;1.60;;;;;;;;;;5036685;28;20029;-86
2023/06/06 13:33:19;;;;;;;4.72;1.65;;;;;;;;;;5041756;28;20021;-87
2023/06/06 13:35:49;;;;;;;2.10;1.40;;;;;;;;;;5037717;28;20662;-90
2023/06/06 13:38:17;;;;;;;1.65;1.27;;;;;;;;;;5037845;28;20037;-87
2023/06/06 13:40:43;;;;;;;2.45;1.35;;;;;;;;;;5040077;28;20090;-88
2023/06/06 13:43:10;;;;;;;2.63;1.80;;;;;;;;;;5042785;28;20115;-85
2023/06/06 13:45:37;;;;;;;2.55;1.60;;;;;;;;;;5036710;28;20155;-83
2023/06/06 13:48:03;;;;;;;1.77;1.50;;;;;;;;;;5041763;28;20111;-80
2023/06/06 13:50:30;;;;;;;2.97;1.80;;;;;;;;;;5038784;28;20500;-81
2023/06/06 13:52:56;;;;;;;2.22;1.23;;;;;;;;;;5037973;28;20033;-84
2023/06/06 13:55:25;;;;;;;2.85;1.33;;;;;;;;;;5034679;28;20056;-81
2023/06/06 13:57:52;;;;;;;2.30;1.52;;;;;;;;;;5042656;28;20031;-77
2023/06/06 14:00:19;;;;;;;1.60;1.40;;;;;;;;;;5034258;28;20023;-77
2023/06/06 14:02:45;;;;;;;7.65;1.65;;;;;;;;;;5035210;28;20076;-82
2023/06/06 14:05:11;;;;;;;2.00;1.60;;;;;;;;;;5031451;28;20048;-90
2023/06/06 14:07:37;;;;;;;2.25;1.52;;;;;;;;;;5046952;28;20104;-91
2023/06/06 14:10:03;;;;;;;2.03;1.40;;;;;;;;;;5054864;28;20025;-89
2023/06/06 14:12:32;;;;;;;2.10;1.70;;;;;;;;;;5039700;28;20029;-92
2023/06/06 14:15:09;;;;;;;3.17;1.58;;;;;;;;;;5048385;28;20488;-91
2023/06/06 14:17:35;;;;;;;1.70;1.60;;;;;;;;;;5040643;28;20027;-89
2023/06/06 14:20:01;;;;;;;2.80;1.73;;;;;;;;;;5045686;28;20026;-89
2023/06/06 14:22:37;;;;;;;2.60;1.60;;;;;;;;;;5036008;28;20113;-87
2023/06/06 14:25:03;;;;;;;2.45;1.35;;;;;;;;;;5040772;28;20025;-89
2023/06/06 14:27:30;;;;;;;1.98;1.40;;;;;;;;;;5044509;28;20029;-87
2023/06/06 14:29:57;;;;;;;3.42;1.90;;;;;;;;;;5035793;28;20025;-91
2023/06/06 14:32:28;;;;;;;5.82;2.03;;;;;;;;;;5046980;28;20024;-90
2023/06/06 14:34:54;;;;;;;2.33;1.70;;;;;;;;;;5043934;28;20041;-89
2023/06/06 14:37:20;;;;;;;3.30;1.92;;;;;;;;;;5049202;28;20458;-91
2023/06/06 14:39:46;;;;;;;2.28;1.83;;;;;;;;;;5045805;28;20059;-91
2023/06/06 14:42:12;;;;;;;2.33;1.63;;;;;;;;;;5043788;28;20471;-91
2023/06/06 14:44:38;;;;;;;2.75;2.03;;;;;;;;;;5041724;28;20340;-90